AirNav   Everest Fuels
 
 1515 users online  

2MO4 Breckenridge Airport
Rockville, Missouri, USA

GOING TO ROCKVILLE?


FAA INFORMATION EFFECTIVE 03 NOVEMBER 2022

Location

FAA Identifier: 2MO4
Lat/Long: 38-06-52.0000N 094-10-36.0000W
38-06.866667N 094-10.600000W
38.1144444,-94.1766667
(estimated)
Elevation: 805 ft. / 245 m (estimated)
Variation: 04E (1990)
From city: 6 miles NW of ROCKVILLE, MO
Time zone: UTC -6 (UTC -5 during Daylight Saving Time)
Zip code: 64724

Airport Operations

Airport use: Private use. Permission required prior to landing
Activation date: 05/1992
Control tower: no
ARTCC: KANSAS CITY CENTER
FSS: COLUMBIA FLIGHT SERVICE STATION
Attendance: UNATNDD
Wind indicator: yes
Segmented circle: no

Airport Communications

WX AWOS-3PT at NVD (17 nm S): 119.175 (417-448-1635)

Nearby radio navigation aids

VOR radial/distance  VOR name  Freq  Var
BUMr116/17.5BUTLER VORTAC115.9007E

Airport Services

Runway Information

Runway 18/36

Dimensions: 2500 x 60 ft. / 762 x 18 m
Surface: turf
RUNWAY 18  RUNWAY 36
Traffic pattern: leftright
Displaced threshold: 100 ft.no
Obstructions: 4 ft. fence, 100 ft. from runway20 ft. plines, 1420 ft. from runway

Airport Ownership and Management from official FAA records

Ownership: Privately-owned
Owner: JIM BRECKENRIDGE
6893 SE STATE ROUTE 0
APPLETON CITY, MO 64724
Phone 417-395-2397
CELL: 660-679-1473
Manager: JIM BRECKENRIDGE
6893 SE STATE ROUTE 0
APPLETON CITY, MO 64724
Phone 417-395-2397

Airport Operational Statistics

Aircraft based on the field: 1
Single engine airplanes: 1
    

Additional Remarks

FOR CD CTC KANSAS CITY ARTCC AT 913-254-8508.

Instrument Procedures

There are no published instrument procedures at 2MO4.

Some nearby airports with instrument procedures:

KBUM - Butler Memorial Airport (13 nm NW)
KNVD - Nevada Municipal Airport (17 nm S)
KGLY - Clinton Regional Airport (28 nm NE)
KLRY - Lawrence Smith Memorial Airport (31 nm N)
MO3 - Stockton Municipal Airport (32 nm SE)
 
Loc | Ops | Rwys | IFR | FBO | Links
Com | Nav | Svcs | Stats | Notes
Area around 2MO4 (Breckenridge Airport)
 
Road maps at: MapQuest Bing Google
 
Aerial photo
No photo
 
Sectional chart

 
Airport distance calculator
Flying to Breckenridge Airport? Find the distance to fly.

From to 2MO4

Sunrise and sunset
Times for 29-Nov-2022
 Local
(UTC-6)
 Zulu
(UTC)
Morning civil twilight06:4412:44
Sunrise07:1313:13
Sunset16:5722:57
Evening civil twilight17:2623:26

Current date and time
Zulu (UTC)  29-Nov-2022 16:53:37
Local (UTC-6)  29-Nov-2022 10:53:37
 
METAR
KGLY 
27nm NE 
291635Z AUTO 22023G30KT 10SM BKN039 OVC044 18/10 A2950 RMK AO2
KLRY 
31nm N 
291635Z AUTO 25017G28KT 10SM SCT034 17/07 A2952 RMK AO2
KFSK 
34nm SW 
291635Z AUTO 22025G34KT 10SM BKN027 OVC033 16/10 A2954 RMK AO2 T01640099
KRAW 
42nm E 
291635Z AUTO 22016G21KT 10SM OVC030 16/10 A2953 RMK AO2
KRCM 
44nm NE 
291635Z AUTO 20019G34KT 10SM SCT033 BKN039 16/08 A2948 RMK AO2
KGVW 
47nm NW 
291620Z AUTO 15014KT 1 1/2SM BR FEW020 SCT030 BKN050 22/22 A2988 RMK A01
KSZL 
47nm NE 
291555Z 20020G26KT 10SM BKN030 15/11 A2944 RMK AO2A PK WND 20030/1458 SLP971 T01540106 $
KPTS 
48nm SW 
291635Z AUTO 22023G34KT 10SM SCT030 BKN036 17/11 A2954 RMK AO2 T01710108 PWINO
TAF
KSZL 
47nm NE 
291432Z 2914/3017 19020G30KT 9999 BKN025 BKN200 540203 QNH2942INS BECMG 2914/2915 19020G30KT 9999 OVC030 QNH2943INS TEMPO 2915/2919 19025G35KT OVC020 540203 BECMG 2918/2919 22015G25KT 9999 OVC030 QNH2944INS TEMPO 2919/3003 23025G35KT OVC020 540203 BECMG 3003/3004 30015KT 9999 BKN030 620302 QNH2983INS TX16/2918Z TNM04/3011Z
NOTAMs
Click for the latest NOTAMs
NOTAMs are issued by the DoD/FAA and will open in a separate window not controlled by AirNav.

 

 
 

Would you like to see your business listed on this page?

 If your business provides an interesting product or service to pilots, flight crews, aircraft, or users of the Breckenridge Airport, you should consider listing it here.  To start the listing process, click on the button below
 
Add a business
 

Other Pages about Breckenridge Airport

Update a link
 
Copyright © AirNav, LLC. All rights reserved. Privacy Policy  Contact